sensor_id;sensor_type;location;lat;lon;timestamp;temperature;humidity
48998;DHT22;34807;51.456;7.244;2023-07-29T00:00:26;20.10;96.10
48998;DHT22;34807;51.456;7.244;2023-07-29T00:02:53;20.10;96.10
48998;DHT22;34807;51.456;7.244;2023-07-29T00:05:18;20.10;96.10
48998;DHT22;34807;51.456;7.244;2023-07-29T00:07:44;20.10;96.10
48998;DHT22;34807;51.456;7.244;2023-07-29T00:10:09;20.10;96.10
48998;DHT22;34807;51.456;7.244;2023-07-29T00:12:35;20.00;96.10
48998;DHT22;34807;51.456;7.244;2023-07-29T00:15:00;20.00;96.00
48998;DHT22;34807;51.456;7.244;2023-07-29T00:17:26;20.00;96.20
48998;DHT22;34807;51.456;7.244;2023-07-29T00:19:51;20.00;96.10
48998;DHT22;34807;51.456;7.244;2023-07-29T00:22:17;20.00;96.10
48998;DHT22;34807;51.456;7.244;2023-07-29T00:24:42;20.00;96.40
48998;DHT22;34807;51.456;7.244;2023-07-29T00:27:08;20.00;96.20
48998;DHT22;34807;51.456;7.244;2023-07-29T00:29:33;19.90;96.20
48998;DHT22;34807;51.456;7.244;2023-07-29T00:31:59;19.90;96.10
48998;DHT22;34807;51.456;7.244;2023-07-29T00:34:24;19.90;96.10
48998;DHT22;34807;51.456;7.244;2023-07-29T00:36:50;19.90;96.20
48998;DHT22;34807;51.456;7.244;2023-07-29T00:39:15;19.90;96.20
48998;DHT22;34807;51.456;7.244;2023-07-29T00:41:41;19.90;96.20
48998;DHT22;34807;51.456;7.244;2023-07-29T00:44:06;19.90;96.30
48998;DHT22;34807;51.456;7.244;2023-07-29T00:46:33;19.90;96.40
48998;DHT22;34807;51.456;7.244;2023-07-29T00:48:59;19.80;96.30
48998;DHT22;34807;51.456;7.244;2023-07-29T00:51:25;19.80;96.30
48998;DHT22;34807;51.456;7.244;2023-07-29T00:53:51;19.80;96.30
48998;DHT22;34807;51.456;7.244;2023-07-29T00:56:16;19.80;96.30
48998;DHT22;34807;51.456;7.244;2023-07-29T00:58:42;19.80;96.20
48998;DHT22;34807;51.456;7.244;2023-07-29T01:01:07;19.80;96.30
48998;DHT22;34807;51.456;7.244;2023-07-29T01:03:33;19.80;96.30
48998;DHT22;34807;51.456;7.244;2023-07-29T01:08:31;19.80;96.40
48998;DHT22;34807;51.456;7.244;2023-07-29T01:11:01;19.80;96.30
48998;DHT22;34807;51.456;7.244;2023-07-29T01:13:34;19.80;96.40
48998;DHT22;34807;51.456;7.244;2023-07-29T01:16:04;19.70;96.40
48998;DHT22;34807;51.456;7.244;2023-07-29T01:18:32;19.70;96.50
48998;DHT22;34807;51.456;7.244;2023-07-29T01:21:03;19.70;96.40
48998;DHT22;34807;51.456;7.244;2023-07-29T01:23:29;19.70;96.30
48998;DHT22;34807;51.456;7.244;2023-07-29T01:25:54;19.70;96.40
48998;DHT22;34807;51.456;7.244;2023-07-29T01:28:20;19.60;96.30
48998;DHT22;34807;51.456;7.244;2023-07-29T01:30:45;19.60;96.30
48998;DHT22;34807;51.456;7.244;2023-07-29T01:33:18;19.60;96.50
48998;DHT22;34807;51.456;7.244;2023-07-29T01:35:49;19.60;96.50
48998;DHT22;34807;51.456;7.244;2023-07-29T01:38:35;19.60;96.50
48998;DHT22;34807;51.456;7.244;2023-07-29T01:41:01;19.60;96.60
48998;DHT22;34807;51.456;7.244;2023-07-29T01:43:30;19.60;96.70
48998;DHT22;34807;51.456;7.244;2023-07-29T01:45:56;19.60;96.90
48998;DHT22;34807;51.456;7.244;2023-07-29T01:48:22;19.50;96.80
48998;DHT22;34807;51.456;7.244;2023-07-29T01:50:48;19.50;96.50
48998;DHT22;34807;51.456;7.244;2023-07-29T01:53:13;19.50;96.60
48998;DHT22;34807;51.456;7.244;2023-07-29T01:55:39;19.50;96.60
48998;DHT22;34807;51.456;7.244;2023-07-29T01:58:04;19.50;96.50
48998;DHT22;34807;51.456;7.244;2023-07-29T02:00:30;19.50;96.60
48998;DHT22;34807;51.456;7.244;2023-07-29T02:02:55;19.50;96.50
48998;DHT22;34807;51.456;7.244;2023-07-29T02:05:21;19.50;96.60
48998;DHT22;34807;51.456;7.244;2023-07-29T02:07:46;19.40;96.70
48998;DHT22;34807;51.456;7.244;2023-07-29T02:10:12;19.40;96.70
48998;DHT22;34807;51.456;7.244;2023-07-29T02:12:37;19.40;96.70
48998;DHT22;34807;51.456;7.244;2023-07-29T02:15:03;19.40;96.60
48998;DHT22;34807;51.456;7.244;2023-07-29T02:17:30;19.40;96.50
48998;DHT22;34807;51.456;7.244;2023-07-29T02:19:55;19.40;96.60
48998;DHT22;34807;51.456;7.244;2023-07-29T02:22:21;19.40;96.60
48998;DHT22;34807;51.456;7.244;2023-07-29T02:24:46;19.40;96.60
48998;DHT22;34807;51.456;7.244;2023-07-29T02:27:12;19.40;96.60
48998;DHT22;34807;51.456;7.244;2023-07-29T02:29:37;19.40;96.70
48998;DHT22;34807;51.456;7.244;2023-07-29T02:32:03;19.40;96.70
48998;DHT22;34807;51.456;7.244;2023-07-29T02:34:28;19.40;96.70
48998;DHT22;34807;51.456;7.244;2023-07-29T02:36:54;19.40;96.80
48998;DHT22;34807;51.456;7.244;2023-07-29T02:39:19;19.40;96.80
48998;DHT22;34807;51.456;7.244;2023-07-29T02:41:45;19.40;96.80
48998;DHT22;34807;51.456;7.244;2023-07-29T02:44:11;19.30;96.60
48998;DHT22;34807;51.456;7.244;2023-07-29T02:46:36;19.30;96.70
48998;DHT22;34807;51.456;7.244;2023-07-29T02:49:02;19.30;96.70
48998;DHT22;34807;51.456;7.244;2023-07-29T02:51:28;19.30;96.70
48998;DHT22;34807;51.456;7.244;2023-07-29T02:53:54;19.30;96.70
48998;DHT22;34807;51.456;7.244;2023-07-29T02:56:19;19.30;96.70
48998;DHT22;34807;51.456;7.244;2023-07-29T02:58:45;19.30;96.70
48998;DHT22;34807;51.456;7.244;2023-07-29T03:01:10;19.30;97.00
48998;DHT22;34807;51.456;7.244;2023-07-29T03:03:36;19.30;96.80
48998;DHT22;34807;51.456;7.244;2023-07-29T03:06:02;19.30;96.80
48998;DHT22;34807;51.456;7.244;2023-07-29T03:08:27;19.30;97.00
48998;DHT22;34807;51.456;7.244;2023-07-29T03:10:53;19.30;96.90
48998;DHT22;34807;51.456;7.244;2023-07-29T03:13:19;19.30;96.80
48998;DHT22;34807;51.456;7.244;2023-07-29T03:15:44;19.30;96.80
48998;DHT22;34807;51.456;7.244;2023-07-29T03:18:10;19.30;96.80
48998;DHT22;34807;51.456;7.244;2023-07-29T03:20:35;19.30;96.80
48998;DHT22;34807;51.456;7.244;2023-07-29T03:23:01;19.30;96.80
48998;DHT22;34807;51.456;7.244;2023-07-29T03:25:26;19.30;97.00
48998;DHT22;34807;51.456;7.244;2023-07-29T03:27:52;19.30;97.00
48998;DHT22;34807;51.456;7.244;2023-07-29T03:30:19;19.30;96.90
48998;DHT22;34807;51.456;7.244;2023-07-29T03:32:44;19.30;97.00
48998;DHT22;34807;51.456;7.244;2023-07-29T03:35:13;19.30;96.90
48998;DHT22;34807;51.456;7.244;2023-07-29T03:37:38;19.30;96.90
48998;DHT22;34807;51.456;7.244;2023-07-29T03:40:04;19.30;97.00
48998;DHT22;34807;51.456;7.244;2023-07-29T03:42:30;19.30;97.00
48998;DHT22;34807;51.456;7.244;2023-07-29T03:44:56;19.30;97.00
48998;DHT22;34807;51.456;7.244;2023-07-29T03:47:21;19.30;96.90
48998;DHT22;34807;51.456;7.244;2023-07-29T03:49:47;19.30;96.90
48998;DHT22;34807;51.456;7.244;2023-07-29T03:52:12;19.30;97.00
48998;DHT22;34807;51.456;7.244;2023-07-29T03:54:37;19.30;97.00
48998;DHT22;34807;51.456;7.244;2023-07-29T03:57:03;19.20;96.90
48998;DHT22;34807;51.456;7.244;2023-07-29T03:59:29;19.30;97.00
48998;DHT22;34807;51.456;7.244;2023-07-29T04:01:54;19.20;96.90
48998;DHT22;34807;51.456;7.244;2023-07-29T04:04:20;19.20;97.00
48998;DHT22;34807;51.456;7.244;2023-07-29T04:06:45;19.20;96.90
48998;DHT22;34807;51.456;7.244;2023-07-29T04:09:11;19.20;97.10
48998;DHT22;34807;51.456;7.244;2023-07-29T04:11:36;19.20;97.00
48998;DHT22;34807;51.456;7.244;2023-07-29T04:14:02;19.20;96.90
48998;DHT22;34807;51.456;7.244;2023-07-29T04:16:27;19.20;96.90
48998;DHT22;34807;51.456;7.244;2023-07-29T04:18:54;19.20;96.90
48998;DHT22;34807;51.456;7.244;2023-07-29T04:21:19;19.20;96.90
48998;DHT22;34807;51.456;7.244;2023-07-29T04:23:45;19.20;96.90
48998;DHT22;34807;51.456;7.244;2023-07-29T04:26:10;19.20;96.90
48998;DHT22;34807;51.456;7.244;2023-07-29T04:28:36;19.20;97.00
48998;DHT22;34807;51.456;7.244;2023-07-29T04:31:01;19.20;96.90
48998;DHT22;34807;51.456;7.244;2023-07-29T04:33:28;19.20;96.90
48998;DHT22;34807;51.456;7.244;2023-07-29T04:35:54;19.20;96.90
48998;DHT22;34807;51.456;7.244;2023-07-29T04:38:20;19.30;96.80
48998;DHT22;34807;51.456;7.244;2023-07-29T04:40:45;19.20;96.80
48998;DHT22;34807;51.456;7.244;2023-07-29T04:43:11;19.20;96.80
48998;DHT22;34807;51.456;7.244;2023-07-29T04:45:41;19.20;96.80
48998;DHT22;34807;51.456;7.244;2023-07-29T04:48:07;19.20;96.90
48998;DHT22;34807;51.456;7.244;2023-07-29T04:50:32;19.20;96.90
48998;DHT22;34807;51.456;7.244;2023-07-29T04:52:58;19.20;96.90
48998;DHT22;34807;51.456;7.244;2023-07-29T04:55:23;19.20;96.90
48998;DHT22;34807;51.456;7.244;2023-07-29T04:57:49;19.20;96.90
48998;DHT22;34807;51.456;7.244;2023-07-29T05:00:15;19.30;97.00
48998;DHT22;34807;51.456;7.244;2023-07-29T05:02:41;19.30;96.90
48998;DHT22;34807;51.456;7.244;2023-07-29T05:05:06;19.30;97.00
48998;DHT22;34807;51.456;7.244;2023-07-29T05:07:33;19.30;97.00
48998;DHT22;34807;51.456;7.244;2023-07-29T05:09:58;19.30;97.00
48998;DHT22;34807;51.456;7.244;2023-07-29T05:12:24;19.20;97.00
48998;DHT22;34807;51.456;7.244;2023-07-29T05:14:49;19.30;97.00
48998;DHT22;34807;51.456;7.244;2023-07-29T05:17:15;19.30;97.00
48998;DHT22;34807;51.456;7.244;2023-07-29T05:19:40;19.30;97.10
48998;DHT22;34807;51.456;7.244;2023-07-29T05:22:06;19.30;97.10
48998;DHT22;34807;51.456;7.244;2023-07-29T05:24:31;19.30;97.10
48998;DHT22;34807;51.456;7.244;2023-07-29T05:26:57;19.30;97.20
48998;DHT22;34807;51.456;7.244;2023-07-29T05:29:22;19.30;97.20
48998;DHT22;34807;51.456;7.244;2023-07-29T05:31:48;19.30;97.20
48998;DHT22;34807;51.456;7.244;2023-07-29T05:34:13;19.30;97.10
48998;DHT22;34807;51.456;7.244;2023-07-29T05:36:39;19.30;97.00
48998;DHT22;34807;51.456;7.244;2023-07-29T05:39:04;19.30;97.00
48998;DHT22;34807;51.456;7.244;2023-07-29T05:41:30;19.30;97.00
48998;DHT22;34807;51.456;7.244;2023-07-29T05:43:55;19.30;97.00
48998;DHT22;34807;51.456;7.244;2023-07-29T05:46:21;19.30;97.00
48998;DHT22;34807;51.456;7.244;2023-07-29T05:48:46;19.40;97.10
48998;DHT22;34807;51.456;7.244;2023-07-29T05:51:12;19.40;97.10
48998;DHT22;34807;51.456;7.244;2023-07-29T05:53:37;19.40;97.20
48998;DHT22;34807;51.456;7.244;2023-07-29T05:56:03;19.40;97.10
48998;DHT22;34807;51.456;7.244;2023-07-29T05:58:28;19.40;97.10
48998;DHT22;34807;51.456;7.244;2023-07-29T06:00:56;19.40;97.00
48998;DHT22;34807;51.456;7.244;2023-07-29T06:03:22;19.40;97.00
48998;DHT22;34807;51.456;7.244;2023-07-29T06:05:48;19.40;97.00
48998;DHT22;34807;51.456;7.244;2023-07-29T06:08:14;19.40;97.10
48998;DHT22;34807;51.456;7.244;2023-07-29T06:10:39;19.40;97.00
48998;DHT22;34807;51.456;7.244;2023-07-29T06:13:05;19.40;97.10
48998;DHT22;34807;51.456;7.244;2023-07-29T06:15:31;19.40;97.20
48998;DHT22;34807;51.456;7.244;2023-07-29T06:17:56;19.40;97.30
48998;DHT22;34807;51.456;7.244;2023-07-29T06:20:22;19.40;97.20
48998;DHT22;34807;51.456;7.244;2023-07-29T06:22:47;19.40;97.10
48998;DHT22;34807;51.456;7.244;2023-07-29T06:25:13;19.50;97.20
48998;DHT22;34807;51.456;7.244;2023-07-29T06:27:38;19.50;97.20
48998;DHT22;34807;51.456;7.244;2023-07-29T06:30:04;19.50;97.20
48998;DHT22;34807;51.456;7.244;2023-07-29T06:32:30;19.50;97.10
48998;DHT22;34807;51.456;7.244;2023-07-29T06:34:55;19.50;97.10
48998;DHT22;34807;51.456;7.244;2023-07-29T06:37:21;19.50;97.10
48998;DHT22;34807;51.456;7.244;2023-07-29T06:39:47;19.50;97.20
48998;DHT22;34807;51.456;7.244;2023-07-29T06:42:12;19.50;97.00
48998;DHT22;34807;51.456;7.244;2023-07-29T06:44:38;19.50;97.00
48998;DHT22;34807;51.456;7.244;2023-07-29T06:47:03;19.50;97.00
48998;DHT22;34807;51.456;7.244;2023-07-29T06:49:29;19.50;97.00
48998;DHT22;34807;51.456;7.244;2023-07-29T06:51:55;19.50;96.90
48998;DHT22;34807;51.456;7.244;2023-07-29T06:54:23;19.50;96.90
48998;DHT22;34807;51.456;7.244;2023-07-29T06:56:49;19.50;96.90
48998;DHT22;34807;51.456;7.244;2023-07-29T06:59:15;19.60;97.00
48998;DHT22;34807;51.456;7.244;2023-07-29T07:01:40;19.50;96.90
48998;DHT22;34807;51.456;7.244;2023-07-29T07:04:05;19.50;96.80
48998;DHT22;34807;51.456;7.244;2023-07-29T07:06:31;19.60;96.90
48998;DHT22;34807;51.456;7.244;2023-07-29T07:08:57;19.60;96.80
48998;DHT22;34807;51.456;7.244;2023-07-29T07:11:22;19.60;96.80
48998;DHT22;34807;51.456;7.244;2023-07-29T07:13:47;19.60;96.80
48998;DHT22;34807;51.456;7.244;2023-07-29T07:16:13;19.50;96.70
48998;DHT22;34807;51.456;7.244;2023-07-29T07:18:39;19.60;96.70
48998;DHT22;34807;51.456;7.244;2023-07-29T07:21:04;19.60;96.70
48998;DHT22;34807;51.456;7.244;2023-07-29T07:23:30;19.60;96.70
48998;DHT22;34807;51.456;7.244;2023-07-29T07:25:55;19.60;96.70
48998;DHT22;34807;51.456;7.244;2023-07-29T07:28:21;19.50;96.70
48998;DHT22;34807;51.456;7.244;2023-07-29T07:30:46;19.60;96.70
48998;DHT22;34807;51.456;7.244;2023-07-29T07:33:12;19.60;96.60
48998;DHT22;34807;51.456;7.244;2023-07-29T07:35:37;19.60;96.60
48998;DHT22;34807;51.456;7.244;2023-07-29T07:38:03;19.60;96.50
48998;DHT22;34807;51.456;7.244;2023-07-29T07:40:32;19.60;96.50
48998;DHT22;34807;51.456;7.244;2023-07-29T07:42:58;19.60;96.60
48998;DHT22;34807;51.456;7.244;2023-07-29T07:45:24;19.70;96.60
48998;DHT22;34807;51.456;7.244;2023-07-29T07:47:51;19.70;96.50
48998;DHT22;34807;51.456;7.244;2023-07-29T07:50:16;19.70;96.50
48998;DHT22;34807;51.456;7.244;2023-07-29T07:52:42;19.70;96.40
48998;DHT22;34807;51.456;7.244;2023-07-29T07:55:07;19.80;96.40
48998;DHT22;34807;51.456;7.244;2023-07-29T07:57:33;19.70;96.40
48998;DHT22;34807;51.456;7.244;2023-07-29T07:59:59;19.80;96.30
48998;DHT22;34807;51.456;7.244;2023-07-29T08:02:24;19.80;96.30
48998;DHT22;34807;51.456;7.244;2023-07-29T08:04:50;19.80;96.30
48998;DHT22;34807;51.456;7.244;2023-07-29T08:07:15;19.90;96.30
48998;DHT22;34807;51.456;7.244;2023-07-29T08:09:41;19.90;96.30
48998;DHT22;34807;51.456;7.244;2023-07-29T08:12:06;19.90;96.10
48998;DHT22;34807;51.456;7.244;2023-07-29T08:14:32;20.00;96.10
48998;DHT22;34807;51.456;7.244;2023-07-29T08:16:58;20.00;96.00
48998;DHT22;34807;51.456;7.244;2023-07-29T08:19:24;20.10;96.10
48998;DHT22;34807;51.456;7.244;2023-07-29T08:21:49;20.10;96.00
48998;DHT22;34807;51.456;7.244;2023-07-29T08:24:15;20.10;96.00
48998;DHT22;34807;51.456;7.244;2023-07-29T08:26:40;20.10;96.00
48998;DHT22;34807;51.456;7.244;2023-07-29T08:29:05;20.10;96.00
48998;DHT22;34807;51.456;7.244;2023-07-29T08:31:31;20.10;95.90
48998;DHT22;34807;51.456;7.244;2023-07-29T08:33:59;20.20;95.90
48998;DHT22;34807;51.456;7.244;2023-07-29T08:36:24;20.10;95.90
48998;DHT22;34807;51.456;7.244;2023-07-29T08:38:50;20.20;95.80
48998;DHT22;34807;51.456;7.244;2023-07-29T08:41:19;20.20;95.80
48998;DHT22;34807;51.456;7.244;2023-07-29T08:43:52;20.20;95.70
48998;DHT22;34807;51.456;7.244;2023-07-29T08:46:18;20.20;95.70
48998;DHT22;34807;51.456;7.244;2023-07-29T08:48:44;20.30;95.60
48998;DHT22;34807;51.456;7.244;2023-07-29T08:51:11;20.30;95.60
48998;DHT22;34807;51.456;7.244;2023-07-29T08:53:37;20.30;95.60
48998;DHT22;34807;51.456;7.244;2023-07-29T08:56:03;20.30;95.50
48998;DHT22;34807;51.456;7.244;2023-07-29T08:58:30;20.40;95.40
48998;DHT22;34807;51.456;7.244;2023-07-29T09:00:56;20.40;95.40
48998;DHT22;34807;51.456;7.244;2023-07-29T09:03:22;20.50;95.50
48998;DHT22;34807;51.456;7.244;2023-07-29T09:05:47;20.50;95.30
48998;DHT22;34807;51.456;7.244;2023-07-29T09:08:13;20.50;95.20
48998;DHT22;34807;51.456;7.244;2023-07-29T09:10:39;20.60;95.10
48998;DHT22;34807;51.456;7.244;2023-07-29T09:13:04;20.60;95.10
48998;DHT22;34807;51.456;7.244;2023-07-29T09:15:32;20.60;95.00
48998;DHT22;34807;51.456;7.244;2023-07-29T09:17:57;20.60;95.00
48998;DHT22;34807;51.456;7.244;2023-07-29T09:20:26;20.60;94.80
48998;DHT22;34807;51.456;7.244;2023-07-29T09:22:56;20.60;95.00
48998;DHT22;34807;51.456;7.244;2023-07-29T09:25:26;20.70;94.80
48998;DHT22;34807;51.456;7.244;2023-07-29T09:27:52;20.70;94.90
48998;DHT22;34807;51.456;7.244;2023-07-29T09:30:17;20.70;94.80
48998;DHT22;34807;51.456;7.244;2023-07-29T09:32:43;20.80;94.80
48998;DHT22;34807;51.456;7.244;2023-07-29T09:35:12;20.80;94.80
48998;DHT22;34807;51.456;7.244;2023-07-29T09:37:38;20.80;94.80
48998;DHT22;34807;51.456;7.244;2023-07-29T09:40:04;20.80;94.80
48998;DHT22;34807;51.456;7.244;2023-07-29T09:42:30;20.80;94.60
48998;DHT22;34807;51.456;7.244;2023-07-29T09:44:55;20.90;94.70
48998;DHT22;34807;51.456;7.244;2023-07-29T09:47:22;20.90;94.70
48998;DHT22;34807;51.456;7.244;2023-07-29T09:49:47;21.00;94.50
48998;DHT22;34807;51.456;7.244;2023-07-29T09:52:16;21.10;94.50
48998;DHT22;34807;51.456;7.244;2023-07-29T09:54:43;21.10;94.50
48998;DHT22;34807;51.456;7.244;2023-07-29T09:57:10;21.10;94.50
48998;DHT22;34807;51.456;7.244;2023-07-29T09:59:36;21.10;94.40
48998;DHT22;34807;51.456;7.244;2023-07-29T10:02:01;21.20;94.30
48998;DHT22;34807;51.456;7.244;2023-07-29T10:04:27;21.20;94.50
48998;DHT22;34807;51.456;7.244;2023-07-29T10:06:53;21.20;94.20
48998;DHT22;34807;51.456;7.244;2023-07-29T10:09:19;21.20;94.50
48998;DHT22;34807;51.456;7.244;2023-07-29T10:11:45;21.20;94.40
48998;DHT22;34807;51.456;7.244;2023-07-29T10:14:11;21.30;94.30
48998;DHT22;34807;51.456;7.244;2023-07-29T10:16:37;21.30;94.30
48998;DHT22;34807;51.456;7.244;2023-07-29T10:19:03;21.30;94.20
48998;DHT22;34807;51.456;7.244;2023-07-29T10:21:29;21.30;94.20
48998;DHT22;34807;51.456;7.244;2023-07-29T10:23:56;21.40;94.20
48998;DHT22;34807;51.456;7.244;2023-07-29T10:26:26;21.50;94.10
48998;DHT22;34807;51.456;7.244;2023-07-29T10:28:53;21.60;93.80
48998;DHT22;34807;51.456;7.244;2023-07-29T10:31:20;21.70;93.80
48998;DHT22;34807;51.456;7.244;2023-07-29T10:33:46;21.80;93.70
48998;DHT22;34807;51.456;7.244;2023-07-29T10:36:12;21.80;93.90
48998;DHT22;34807;51.456;7.244;2023-07-29T10:38:37;21.90;93.50
48998;DHT22;34807;51.456;7.244;2023-07-29T10:41:03;21.90;94.20
48998;DHT22;34807;51.456;7.244;2023-07-29T10:43:32;22.00;94.20
48998;DHT22;34807;51.456;7.244;2023-07-29T10:46:14;22.10;93.60
48998;DHT22;34807;51.456;7.244;2023-07-29T10:48:42;22.20;93.20
48998;DHT22;34807;51.456;7.244;2023-07-29T10:54:11;22.40;93.20
48998;DHT22;34807;51.456;7.244;2023-07-29T10:56:39;22.50;93.30
48998;DHT22;34807;51.456;7.244;2023-07-29T11:01:38;22.70;93.50
48998;DHT22;34807;51.456;7.244;2023-07-29T11:09:42;22.70;93.20
48998;DHT22;34807;51.456;7.244;2023-07-29T11:14:52;22.80;93.50
48998;DHT22;34807;51.456;7.244;2023-07-29T11:17:17;22.80;93.90
48998;DHT22;34807;51.456;7.244;2023-07-29T11:19:43;22.80;93.80
48998;DHT22;34807;51.456;7.244;2023-07-29T11:22:10;22.80;93.60
48998;DHT22;34807;51.456;7.244;2023-07-29T11:24:35;22.90;93.60
48998;DHT22;34807;51.456;7.244;2023-07-29T11:27:01;23.00;93.50
48998;DHT22;34807;51.456;7.244;2023-07-29T11:29:26;23.10;93.20
48998;DHT22;34807;51.456;7.244;2023-07-29T11:31:51;23.20;92.80
48998;DHT22;34807;51.456;7.244;2023-07-29T11:34:17;23.20;93.50
48998;DHT22;34807;51.456;7.244;2023-07-29T11:36:46;23.40;93.20
48998;DHT22;34807;51.456;7.244;2023-07-29T11:39:11;23.50;93.00
48998;DHT22;34807;51.456;7.244;2023-07-29T11:41:37;23.50;92.90
48998;DHT22;34807;51.456;7.244;2023-07-29T11:44:02;23.50;92.60
48998;DHT22;34807;51.456;7.244;2023-07-29T11:46:28;23.40;92.80
48998;DHT22;34807;51.456;7.244;2023-07-29T11:48:54;23.40;92.60
48998;DHT22;34807;51.456;7.244;2023-07-29T11:51:19;23.30;92.70
48998;DHT22;34807;51.456;7.244;2023-07-29T11:53:45;23.30;92.90
48998;DHT22;34807;51.456;7.244;2023-07-29T11:56:10;23.30;92.70
48998;DHT22;34807;51.456;7.244;2023-07-29T11:58:38;23.30;93.50
48998;DHT22;34807;51.456;7.244;2023-07-29T12:01:03;23.30;93.10
48998;DHT22;34807;51.456;7.244;2023-07-29T12:03:30;23.30;93.00
48998;DHT22;34807;51.456;7.244;2023-07-29T12:05:56;23.30;93.20
48998;DHT22;34807;51.456;7.244;2023-07-29T12:08:21;23.30;93.10
48998;DHT22;34807;51.456;7.244;2023-07-29T12:10:48;23.40;93.00
48998;DHT22;34807;51.456;7.244;2023-07-29T12:13:13;23.40;92.40
48998;DHT22;34807;51.456;7.244;2023-07-29T12:15:39;23.40;92.60
48998;DHT22;34807;51.456;7.244;2023-07-29T12:18:05;23.50;92.50
48998;DHT22;34807;51.456;7.244;2023-07-29T12:20:31;23.60;92.30
48998;DHT22;34807;51.456;7.244;2023-07-29T12:22:57;23.60;92.00
48998;DHT22;34807;51.456;7.244;2023-07-29T12:25:23;23.60;92.10
48998;DHT22;34807;51.456;7.244;2023-07-29T12:27:49;23.60;92.30
48998;DHT22;34807;51.456;7.244;2023-07-29T12:30:14;23.60;92.60
48998;DHT22;34807;51.456;7.244;2023-07-29T12:32:44;23.70;92.30
48998;DHT22;34807;51.456;7.244;2023-07-29T12:35:09;23.90;92.90
48998;DHT22;34807;51.456;7.244;2023-07-29T12:37:35;23.90;92.20
48998;DHT22;34807;51.456;7.244;2023-07-29T12:40:01;24.00;92.20
48998;DHT22;34807;51.456;7.244;2023-07-29T12:42:27;24.10;91.80
48998;DHT22;34807;51.456;7.244;2023-07-29T12:44:52;24.30;92.10
48998;DHT22;34807;51.456;7.244;2023-07-29T12:47:18;24.30;91.20
48998;DHT22;34807;51.456;7.244;2023-07-29T12:49:43;24.30;90.80
48998;DHT22;34807;51.456;7.244;2023-07-29T12:52:09;24.30;91.10
48998;DHT22;34807;51.456;7.244;2023-07-29T12:54:34;24.20;91.70
48998;DHT22;34807;51.456;7.244;2023-07-29T12:57:00;24.20;91.50
48998;DHT22;34807;51.456;7.244;2023-07-29T12:59:25;24.20;91.70
48998;DHT22;34807;51.456;7.244;2023-07-29T13:01:51;24.10;92.00
48998;DHT22;34807;51.456;7.244;2023-07-29T13:04:16;24.10;92.30
48998;DHT22;34807;51.456;7.244;2023-07-29T13:06:42;24.10;92.50
48998;DHT22;34807;51.456;7.244;2023-07-29T13:09:07;24.10;91.80
48998;DHT22;34807;51.456;7.244;2023-07-29T13:11:33;24.20;91.70
48998;DHT22;34807;51.456;7.244;2023-07-29T13:13:59;24.40;91.80
48998;DHT22;34807;51.456;7.244;2023-07-29T13:16:26;24.50;91.50
48998;DHT22;34807;51.456;7.244;2023-07-29T13:18:51;24.70;91.50
48998;DHT22;34807;51.456;7.244;2023-07-29T13:21:17;24.70;90.60
48998;DHT22;34807;51.456;7.244;2023-07-29T13:23:42;24.80;91.10
48998;DHT22;34807;51.456;7.244;2023-07-29T13:26:08;24.80;91.20
48998;DHT22;34807;51.456;7.244;2023-07-29T13:28:33;24.80;90.80
48998;DHT22;34807;51.456;7.244;2023-07-29T13:30:59;24.90;90.90
48998;DHT22;34807;51.456;7.244;2023-07-29T13:33:24;24.90;90.70
48998;DHT22;34807;51.456;7.244;2023-07-29T13:35:50;25.00;90.40
48998;DHT22;34807;51.456;7.244;2023-07-29T13:38:15;25.10;90.40
48998;DHT22;34807;51.456;7.244;2023-07-29T13:40:41;25.00;90.40
48998;DHT22;34807;51.456;7.244;2023-07-29T13:43:07;25.00;90.30
48998;DHT22;34807;51.456;7.244;2023-07-29T13:45:33;25.00;90.40
48998;DHT22;34807;51.456;7.244;2023-07-29T13:47:58;25.00;90.50
48998;DHT22;34807;51.456;7.244;2023-07-29T13:50:24;24.90;90.80
48998;DHT22;34807;51.456;7.244;2023-07-29T13:52:50;24.90;91.00
48998;DHT22;34807;51.456;7.244;2023-07-29T13:55:15;24.80;91.00
48998;DHT22;34807;51.456;7.244;2023-07-29T13:57:41;24.70;90.80
48998;DHT22;34807;51.456;7.244;2023-07-29T14:00:06;24.70;91.40
48998;DHT22;34807;51.456;7.244;2023-07-29T14:02:33;24.60;91.00
48998;DHT22;34807;51.456;7.244;2023-07-29T14:04:59;24.50;91.70
48998;DHT22;34807;51.456;7.244;2023-07-29T14:07:24;24.50;91.60
48998;DHT22;34807;51.456;7.244;2023-07-29T14:09:50;24.40;91.40
48998;DHT22;34807;51.456;7.244;2023-07-29T14:12:15;24.40;91.80
48998;DHT22;34807;51.456;7.244;2023-07-29T14:14:41;24.30;91.90
48998;DHT22;34807;51.456;7.244;2023-07-29T14:17:06;24.30;91.70
48998;DHT22;34807;51.456;7.244;2023-07-29T14:19:34;24.20;91.80
48998;DHT22;34807;51.456;7.244;2023-07-29T14:21:59;24.10;91.70
48998;DHT22;34807;51.456;7.244;2023-07-29T14:24:24;24.00;92.20
48998;DHT22;34807;51.456;7.244;2023-07-29T14:26:50;23.90;92.20
48998;DHT22;34807;51.456;7.244;2023-07-29T14:29:16;23.90;92.40
48998;DHT22;34807;51.456;7.244;2023-07-29T14:31:41;23.80;92.60
48998;DHT22;34807;51.456;7.244;2023-07-29T14:34:07;23.70;92.60
48998;DHT22;34807;51.456;7.244;2023-07-29T14:36:32;23.60;92.80
48998;DHT22;34807;51.456;7.244;2023-07-29T14:38:58;23.60;92.70
48998;DHT22;34807;51.456;7.244;2023-07-29T14:41:23;23.60;93.00
48998;DHT22;34807;51.456;7.244;2023-07-29T14:43:49;23.50;93.00
48998;DHT22;34807;51.456;7.244;2023-07-29T14:46:14;23.40;92.70
48998;DHT22;34807;51.456;7.244;2023-07-29T14:48:40;23.30;92.40
48998;DHT22;34807;51.456;7.244;2023-07-29T14:51:05;23.30;92.70
48998;DHT22;34807;51.456;7.244;2023-07-29T14:53:31;23.30;92.60
48998;DHT22;34807;51.456;7.244;2023-07-29T14:55:56;23.30;92.70
48998;DHT22;34807;51.456;7.244;2023-07-29T14:58:22;23.30;92.80
48998;DHT22;34807;51.456;7.244;2023-07-29T15:00:50;23.40;92.50
48998;DHT22;34807;51.456;7.244;2023-07-29T15:03:16;23.50;92.40
48998;DHT22;34807;51.456;7.244;2023-07-29T15:05:41;23.70;92.20
48998;DHT22;34807;51.456;7.244;2023-07-29T15:08:07;23.90;91.80
48998;DHT22;34807;51.456;7.244;2023-07-29T15:10:32;24.00;91.80
48998;DHT22;34807;51.456;7.244;2023-07-29T15:12:58;23.90;91.90
48998;DHT22;34807;51.456;7.244;2023-07-29T15:15:23;23.80;91.90
48998;DHT22;34807;51.456;7.244;2023-07-29T15:17:49;23.70;92.20
48998;DHT22;34807;51.456;7.244;2023-07-29T15:20:14;23.60;92.40
48998;DHT22;34807;51.456;7.244;2023-07-29T15:22:40;23.60;92.50
48998;DHT22;34807;51.456;7.244;2023-07-29T15:25:07;23.60;92.50
48998;DHT22;34807;51.456;7.244;2023-07-29T15:27:33;23.50;92.70
48998;DHT22;34807;51.456;7.244;2023-07-29T15:29:59;23.40;92.70
48998;DHT22;34807;51.456;7.244;2023-07-29T15:32:24;23.40;92.70
48998;DHT22;34807;51.456;7.244;2023-07-29T15:34:50;23.40;92.60
48998;DHT22;34807;51.456;7.244;2023-07-29T15:37:15;23.40;92.70